sensor_id;sensor_type;location;lat;lon;timestamp;P1;durP1;ratioP1;P2;durP2;ratioP2
67904;SDS011;54709;43.614;1.576;2023-02-28T00:00:45;4.78;;;3.22;;
67904;SDS011;54709;43.614;1.576;2023-02-28T00:03:10;5.82;;;3.35;;
67904;SDS011;54709;43.614;1.576;2023-02-28T00:05:36;4.90;;;3.40;;
67904;SDS011;54709;43.614;1.576;2023-02-28T00:08:01;4.97;;;3.38;;
67904;SDS011;54709;43.614;1.576;2023-02-28T00:10:28;4.57;;;3.67;;
67904;SDS011;54709;43.614;1.576;2023-02-28T00:12:55;5.00;;;3.67;;
67904;SDS011;54709;43.614;1.576;2023-02-28T00:15:24;5.85;;;3.90;;
67904;SDS011;54709;43.614;1.576;2023-02-28T00:17:50;7.40;;;3.97;;
67904;SDS011;54709;43.614;1.576;2023-02-28T00:20:15;4.45;;;3.58;;
67904;SDS011;54709;43.614;1.576;2023-02-28T00:22:42;4.13;;;3.25;;
67904;SDS011;54709;43.614;1.576;2023-02-28T00:25:09;6.75;;;3.75;;
67904;SDS011;54709;43.614;1.576;2023-02-28T00:27:36;4.95;;;3.53;;
67904;SDS011;54709;43.614;1.576;2023-02-28T00:30:03;5.57;;;3.90;;
67904;SDS011;54709;43.614;1.576;2023-02-28T00:32:29;4.38;;;3.50;;
67904;SDS011;54709;43.614;1.576;2023-02-28T00:34:54;5.13;;;3.65;;
67904;SDS011;54709;43.614;1.576;2023-02-28T00:37:20;4.70;;;3.15;;
67904;SDS011;54709;43.614;1.576;2023-02-28T00:39:46;6.13;;;3.67;;
67904;SDS011;54709;43.614;1.576;2023-02-28T00:42:11;6.22;;;3.78;;
67904;SDS011;54709;43.614;1.576;2023-02-28T00:44:36;5.78;;;3.17;;
67904;SDS011;54709;43.614;1.576;2023-02-28T00:47:02;5.82;;;3.45;;
67904;SDS011;54709;43.614;1.576;2023-02-28T00:49:27;4.97;;;3.63;;
67904;SDS011;54709;43.614;1.576;2023-02-28T00:51:53;3.70;;;3.30;;
67904;SDS011;54709;43.614;1.576;2023-02-28T00:54:19;5.38;;;3.50;;
67904;SDS011;54709;43.614;1.576;2023-02-28T00:56:45;6.47;;;3.90;;
67904;SDS011;54709;43.614;1.576;2023-02-28T00:59:11;5.47;;;3.67;;
67904;SDS011;54709;43.614;1.576;2023-02-28T01:01:37;4.88;;;3.90;;
67904;SDS011;54709;43.614;1.576;2023-02-28T01:04:03;4.90;;;3.60;;
67904;SDS011;54709;43.614;1.576;2023-02-28T01:06:28;6.40;;;3.78;;
67904;SDS011;54709;43.614;1.576;2023-02-28T01:08:54;5.25;;;3.72;;
67904;SDS011;54709;43.614;1.576;2023-02-28T01:11:19;6.35;;;4.00;;
67904;SDS011;54709;43.614;1.576;2023-02-28T01:13:45;5.35;;;4.03;;
67904;SDS011;54709;43.614;1.576;2023-02-28T01:16:11;6.10;;;3.42;;
67904;SDS011;54709;43.614;1.576;2023-02-28T01:18:37;5.07;;;3.90;;
67904;SDS011;54709;43.614;1.576;2023-02-28T01:21:07;6.88;;;3.70;;
67904;SDS011;54709;43.614;1.576;2023-02-28T01:23:34;6.95;;;3.70;;
67904;SDS011;54709;43.614;1.576;2023-02-28T01:26:13;5.80;;;3.40;;
67904;SDS011;54709;43.614;1.576;2023-02-28T01:28:41;5.72;;;3.85;;
67904;SDS011;54709;43.614;1.576;2023-02-28T01:31:06;6.18;;;3.85;;
67904;SDS011;54709;43.614;1.576;2023-02-28T01:33:32;6.70;;;3.90;;
67904;SDS011;54709;43.614;1.576;2023-02-28T01:35:59;6.63;;;3.97;;
67904;SDS011;54709;43.614;1.576;2023-02-28T01:38:32;5.68;;;3.95;;
67904;SDS011;54709;43.614;1.576;2023-02-28T01:40:58;5.75;;;4.03;;
67904;SDS011;54709;43.614;1.576;2023-02-28T01:43:24;5.43;;;3.70;;
67904;SDS011;54709;43.614;1.576;2023-02-28T01:45:52;6.13;;;4.03;;
67904;SDS011;54709;43.614;1.576;2023-02-28T01:48:19;4.65;;;3.67;;
67904;SDS011;54709;43.614;1.576;2023-02-28T01:50:46;5.45;;;3.85;;
67904;SDS011;54709;43.614;1.576;2023-02-28T01:53:14;5.35;;;4.00;;
67904;SDS011;54709;43.614;1.576;2023-02-28T01:55:45;5.35;;;3.97;;
67904;SDS011;54709;43.614;1.576;2023-02-28T01:58:12;5.20;;;3.90;;
67904;SDS011;54709;43.614;1.576;2023-02-28T02:00:38;4.90;;;4.22;;
67904;SDS011;54709;43.614;1.576;2023-02-28T02:03:06;7.22;;;4.38;;
67904;SDS011;54709;43.614;1.576;2023-02-28T02:05:34;4.40;;;3.72;;
67904;SDS011;54709;43.614;1.576;2023-02-28T02:08:03;5.60;;;4.10;;
67904;SDS011;54709;43.614;1.576;2023-02-28T02:10:32;5.57;;;4.20;;
67904;SDS011;54709;43.614;1.576;2023-02-28T02:14:04;7.18;;;4.22;;
67904;SDS011;54709;43.614;1.576;2023-02-28T02:16:24;6.05;;;4.50;;
67904;SDS011;54709;43.614;1.576;2023-02-28T02:18:57;5.82;;;4.20;;
67904;SDS011;54709;43.614;1.576;2023-02-28T02:35:43;5.38;;;4.45;;
67904;SDS011;54709;43.614;1.576;2023-02-28T02:43:41;7.25;;;4.38;;
67904;SDS011;54709;43.614;1.576;2023-02-28T02:46:14;6.00;;;4.32;;
67904;SDS011;54709;43.614;1.576;2023-02-28T02:48:43;6.20;;;4.10;;
67904;SDS011;54709;43.614;1.576;2023-02-28T02:51:11;6.18;;;3.97;;
67904;SDS011;54709;43.614;1.576;2023-02-28T02:53:41;6.22;;;4.32;;
67904;SDS011;54709;43.614;1.576;2023-02-28T02:56:10;7.55;;;4.45;;
67904;SDS011;54709;43.614;1.576;2023-02-28T02:58:37;7.45;;;4.82;;
67904;SDS011;54709;43.614;1.576;2023-02-28T03:01:07;6.35;;;4.90;;
67904;SDS011;54709;43.614;1.576;2023-02-28T03:03:36;6.88;;;4.72;;
67904;SDS011;54709;43.614;1.576;2023-02-28T03:06:02;7.97;;;4.70;;
67904;SDS011;54709;43.614;1.576;2023-02-28T03:08:29;6.55;;;4.68;;
67904;SDS011;54709;43.614;1.576;2023-02-28T03:11:00;9.43;;;4.80;;
67904;SDS011;54709;43.614;1.576;2023-02-28T03:16:20;6.35;;;4.50;;
67904;SDS011;54709;43.614;1.576;2023-02-28T03:27:06;7.85;;;5.20;;
67904;SDS011;54709;43.614;1.576;2023-02-28T03:29:38;7.13;;;4.90;;
67904;SDS011;54709;43.614;1.576;2023-02-28T03:32:20;7.32;;;5.47;;
67904;SDS011;54709;43.614;1.576;2023-02-28T03:34:57;5.82;;;4.72;;
67904;SDS011;54709;43.614;1.576;2023-02-28T03:37:29;7.03;;;5.25;;
67904;SDS011;54709;43.614;1.576;2023-02-28T03:39:58;7.57;;;5.20;;
67904;SDS011;54709;43.614;1.576;2023-02-28T03:42:27;6.22;;;4.80;;
67904;SDS011;54709;43.614;1.576;2023-02-28T03:44:55;7.78;;;5.18;;
67904;SDS011;54709;43.614;1.576;2023-02-28T03:50:14;6.57;;;5.15;;
67904;SDS011;54709;43.614;1.576;2023-02-28T03:55:39;7.22;;;5.13;;
67904;SDS011;54709;43.614;1.576;2023-02-28T04:01:07;10.20;;;5.65;;
67904;SDS011;54709;43.614;1.576;2023-02-28T04:03:46;9.23;;;6.40;;
67904;SDS011;54709;43.614;1.576;2023-02-28T04:06:19;7.97;;;5.93;;
67904;SDS011;54709;43.614;1.576;2023-02-28T04:08:46;7.05;;;5.47;;
67904;SDS011;54709;43.614;1.576;2023-02-28T04:13:47;8.18;;;5.43;;
67904;SDS011;54709;43.614;1.576;2023-02-28T04:16:13;7.40;;;5.88;;
67904;SDS011;54709;43.614;1.576;2023-02-28T04:18:40;6.68;;;5.75;;
67904;SDS011;54709;43.614;1.576;2023-02-28T04:21:07;8.95;;;5.82;;
67904;SDS011;54709;43.614;1.576;2023-02-28T04:23:33;7.00;;;5.80;;
67904;SDS011;54709;43.614;1.576;2023-02-28T04:25:59;8.15;;;6.00;;
67904;SDS011;54709;43.614;1.576;2023-02-28T04:28:24;6.90;;;5.45;;
67904;SDS011;54709;43.614;1.576;2023-02-28T04:30:56;8.32;;;5.20;;
67904;SDS011;54709;43.614;1.576;2023-02-28T04:33:22;7.43;;;5.38;;
67904;SDS011;54709;43.614;1.576;2023-02-28T04:35:48;6.30;;;5.13;;
67904;SDS011;54709;43.614;1.576;2023-02-28T04:38:13;11.75;;;5.70;;
67904;SDS011;54709;43.614;1.576;2023-02-28T04:40:39;6.95;;;5.22;;
67904;SDS011;54709;43.614;1.576;2023-02-28T04:43:04;7.05;;;5.60;;
67904;SDS011;54709;43.614;1.576;2023-02-28T04:45:29;8.52;;;5.43;;
67904;SDS011;54709;43.614;1.576;2023-02-28T04:47:57;8.95;;;5.90;;
67904;SDS011;54709;43.614;1.576;2023-02-28T04:50:22;9.05;;;6.22;;
67904;SDS011;54709;43.614;1.576;2023-02-28T04:52:48;10.15;;;6.60;;
67904;SDS011;54709;43.614;1.576;2023-02-28T04:55:13;12.70;;;7.00;;
67904;SDS011;54709;43.614;1.576;2023-02-28T04:57:39;12.75;;;8.13;;
67904;SDS011;54709;43.614;1.576;2023-02-28T05:00:06;9.27;;;6.30;;
67904;SDS011;54709;43.614;1.576;2023-02-28T05:02:36;8.68;;;5.93;;
67904;SDS011;54709;43.614;1.576;2023-02-28T05:05:02;8.55;;;5.68;;
67904;SDS011;54709;43.614;1.576;2023-02-28T05:07:27;11.45;;;6.60;;
67904;SDS011;54709;43.614;1.576;2023-02-28T05:09:53;13.55;;;8.07;;
67904;SDS011;54709;43.614;1.576;2023-02-28T05:12:18;14.73;;;8.70;;
67904;SDS011;54709;43.614;1.576;2023-02-28T05:14:43;13.52;;;8.10;;
67904;SDS011;54709;43.614;1.576;2023-02-28T05:17:09;11.77;;;7.15;;
67904;SDS011;54709;43.614;1.576;2023-02-28T05:19:35;14.20;;;8.02;;
67904;SDS011;54709;43.614;1.576;2023-02-28T05:22:00;13.57;;;8.15;;
67904;SDS011;54709;43.614;1.576;2023-02-28T05:24:25;11.70;;;7.97;;
67904;SDS011;54709;43.614;1.576;2023-02-28T05:26:51;10.80;;;7.43;;
67904;SDS011;54709;43.614;1.576;2023-02-28T05:29:18;9.27;;;6.28;;
67904;SDS011;54709;43.614;1.576;2023-02-28T05:31:44;9.23;;;6.15;;
67904;SDS011;54709;43.614;1.576;2023-02-28T05:34:09;6.63;;;5.40;;
67904;SDS011;54709;43.614;1.576;2023-02-28T05:36:37;8.57;;;6.15;;
67904;SDS011;54709;43.614;1.576;2023-02-28T05:39:04;9.32;;;6.22;;
67904;SDS011;54709;43.614;1.576;2023-02-28T05:41:30;10.13;;;6.13;;
67904;SDS011;54709;43.614;1.576;2023-02-28T05:43:57;10.60;;;6.45;;
67904;SDS011;54709;43.614;1.576;2023-02-28T05:46:22;8.10;;;6.20;;
67904;SDS011;54709;43.614;1.576;2023-02-28T05:48:48;9.35;;;6.25;;
67904;SDS011;54709;43.614;1.576;2023-02-28T05:51:15;7.00;;;6.25;;
67904;SDS011;54709;43.614;1.576;2023-02-28T05:53:41;9.98;;;6.68;;
67904;SDS011;54709;43.614;1.576;2023-02-28T05:56:06;9.43;;;6.40;;
67904;SDS011;54709;43.614;1.576;2023-02-28T05:58:32;9.43;;;5.97;;
67904;SDS011;54709;43.614;1.576;2023-02-28T06:00:57;10.68;;;6.25;;
67904;SDS011;54709;43.614;1.576;2023-02-28T06:03:23;7.35;;;6.35;;
67904;SDS011;54709;43.614;1.576;2023-02-28T06:05:49;8.13;;;6.22;;
67904;SDS011;54709;43.614;1.576;2023-02-28T06:08:15;9.70;;;6.07;;
67904;SDS011;54709;43.614;1.576;2023-02-28T06:10:40;9.02;;;6.20;;
67904;SDS011;54709;43.614;1.576;2023-02-28T06:13:06;8.23;;;6.07;;
67904;SDS011;54709;43.614;1.576;2023-02-28T06:15:31;12.02;;;6.80;;
67904;SDS011;54709;43.614;1.576;2023-02-28T06:17:57;9.52;;;6.65;;
67904;SDS011;54709;43.614;1.576;2023-02-28T06:20:23;8.85;;;6.22;;
67904;SDS011;54709;43.614;1.576;2023-02-28T06:22:49;9.57;;;6.45;;
67904;SDS011;54709;43.614;1.576;2023-02-28T06:25:19;14.27;;;7.60;;
67904;SDS011;54709;43.614;1.576;2023-02-28T06:27:45;12.35;;;8.52;;
67904;SDS011;54709;43.614;1.576;2023-02-28T06:30:11;15.43;;;8.70;;
67904;SDS011;54709;43.614;1.576;2023-02-28T06:32:36;13.00;;;8.75;;
67904;SDS011;54709;43.614;1.576;2023-02-28T06:35:02;11.95;;;7.55;;
67904;SDS011;54709;43.614;1.576;2023-02-28T06:37:28;11.25;;;7.47;;
67904;SDS011;54709;43.614;1.576;2023-02-28T06:39:53;12.23;;;8.02;;
67904;SDS011;54709;43.614;1.576;2023-02-28T06:42:21;10.82;;;8.55;;
67904;SDS011;54709;43.614;1.576;2023-02-28T06:44:49;15.00;;;10.30;;
67904;SDS011;54709;43.614;1.576;2023-02-28T06:47:15;13.07;;;9.52;;
67904;SDS011;54709;43.614;1.576;2023-02-28T06:49:40;9.63;;;7.53;;
67904;SDS011;54709;43.614;1.576;2023-02-28T06:52:06;11.82;;;7.55;;
67904;SDS011;54709;43.614;1.576;2023-02-28T06:54:31;10.57;;;7.90;;
67904;SDS011;54709;43.614;1.576;2023-02-28T06:56:57;13.70;;;8.05;;
67904;SDS011;54709;43.614;1.576;2023-02-28T06:59:23;10.82;;;8.00;;
67904;SDS011;54709;43.614;1.576;2023-02-28T07:01:48;10.95;;;8.05;;
67904;SDS011;54709;43.614;1.576;2023-02-28T07:04:14;10.48;;;8.48;;
67904;SDS011;54709;43.614;1.576;2023-02-28T07:06:39;13.25;;;9.27;;
67904;SDS011;54709;43.614;1.576;2023-02-28T07:09:05;11.98;;;9.13;;
67904;SDS011;54709;43.614;1.576;2023-02-28T07:11:30;19.15;;;14.00;;
67904;SDS011;54709;43.614;1.576;2023-02-28T07:13:56;18.55;;;13.30;;
67904;SDS011;54709;43.614;1.576;2023-02-28T07:16:22;16.58;;;11.13;;
67904;SDS011;54709;43.614;1.576;2023-02-28T07:18:49;12.27;;;9.48;;
67904;SDS011;54709;43.614;1.576;2023-02-28T07:21:14;16.50;;;11.25;;
67904;SDS011;54709;43.614;1.576;2023-02-28T07:23:40;23.00;;;14.98;;
67904;SDS011;54709;43.614;1.576;2023-02-28T07:26:07;14.35;;;10.30;;
67904;SDS011;54709;43.614;1.576;2023-02-28T07:28:36;12.15;;;8.88;;
67904;SDS011;54709;43.614;1.576;2023-02-28T07:31:04;11.70;;;9.18;;
67904;SDS011;54709;43.614;1.576;2023-02-28T07:33:30;11.95;;;8.38;;
67904;SDS011;54709;43.614;1.576;2023-02-28T07:36:09;10.10;;;8.13;;
67904;SDS011;54709;43.614;1.576;2023-02-28T07:38:41;12.95;;;9.20;;
67904;SDS011;54709;43.614;1.576;2023-02-28T07:41:08;12.15;;;8.65;;
67904;SDS011;54709;43.614;1.576;2023-02-28T07:43:33;11.85;;;9.13;;
67904;SDS011;54709;43.614;1.576;2023-02-28T07:46:07;12.32;;;10.07;;
67904;SDS011;54709;43.614;1.576;2023-02-28T07:48:34;13.82;;;9.18;;
67904;SDS011;54709;43.614;1.576;2023-02-28T07:50:59;12.35;;;8.52;;
67904;SDS011;54709;43.614;1.576;2023-02-28T07:53:26;11.43;;;8.27;;
67904;SDS011;54709;43.614;1.576;2023-02-28T07:55:59;11.90;;;9.13;;
67904;SDS011;54709;43.614;1.576;2023-02-28T07:58:25;9.60;;;8.07;;
67904;SDS011;54709;43.614;1.576;2023-02-28T08:00:51;11.20;;;8.23;;
67904;SDS011;54709;43.614;1.576;2023-02-28T08:03:17;10.60;;;8.10;;
67904;SDS011;54709;43.614;1.576;2023-02-28T08:05:43;9.65;;;7.65;;
67904;SDS011;54709;43.614;1.576;2023-02-28T08:08:09;10.38;;;7.30;;
67904;SDS011;54709;43.614;1.576;2023-02-28T08:10:34;10.05;;;7.60;;
67904;SDS011;54709;43.614;1.576;2023-02-28T08:13:00;15.30;;;7.60;;
67904;SDS011;54709;43.614;1.576;2023-02-28T08:15:25;11.90;;;7.97;;
67904;SDS011;54709;43.614;1.576;2023-02-28T08:17:51;13.05;;;8.38;;
67904;SDS011;54709;43.614;1.576;2023-02-28T08:20:16;16.23;;;8.95;;
67904;SDS011;54709;43.614;1.576;2023-02-28T08:22:42;13.43;;;8.55;;
67904;SDS011;54709;43.614;1.576;2023-02-28T08:25:07;12.48;;;7.88;;
67904;SDS011;54709;43.614;1.576;2023-02-28T08:27:34;11.05;;;7.68;;
67904;SDS011;54709;43.614;1.576;2023-02-28T08:29:59;9.90;;;7.60;;
67904;SDS011;54709;43.614;1.576;2023-02-28T08:32:25;8.45;;;7.30;;
67904;SDS011;54709;43.614;1.576;2023-02-28T08:34:50;9.73;;;7.00;;
67904;SDS011;54709;43.614;1.576;2023-02-28T08:37:16;8.88;;;6.22;;
67904;SDS011;54709;43.614;1.576;2023-02-28T08:39:41;8.77;;;6.78;;
67904;SDS011;54709;43.614;1.576;2023-02-28T08:42:07;8.50;;;6.13;;
67904;SDS011;54709;43.614;1.576;2023-02-28T08:44:32;8.18;;;6.60;;
67904;SDS011;54709;43.614;1.576;2023-02-28T08:46:57;8.75;;;7.05;;
67904;SDS011;54709;43.614;1.576;2023-02-28T08:49:23;12.65;;;7.57;;
67904;SDS011;54709;43.614;1.576;2023-02-28T08:51:48;19.35;;;9.55;;
67904;SDS011;54709;43.614;1.576;2023-02-28T08:54:13;10.30;;;6.47;;
67904;SDS011;54709;43.614;1.576;2023-02-28T08:56:44;9.07;;;6.78;;
67904;SDS011;54709;43.614;1.576;2023-02-28T08:59:09;10.05;;;6.88;;
67904;SDS011;54709;43.614;1.576;2023-02-28T09:01:35;8.75;;;6.00;;
67904;SDS011;54709;43.614;1.576;2023-02-28T09:04:01;7.93;;;5.50;;
67904;SDS011;54709;43.614;1.576;2023-02-28T09:06:27;11.63;;;6.20;;
67904;SDS011;54709;43.614;1.576;2023-02-28T09:08:55;8.73;;;5.78;;
67904;SDS011;54709;43.614;1.576;2023-02-28T09:11:23;8.25;;;5.38;;
67904;SDS011;54709;43.614;1.576;2023-02-28T09:13:48;8.70;;;5.90;;
67904;SDS011;54709;43.614;1.576;2023-02-28T09:16:14;9.30;;;6.45;;
67904;SDS011;54709;43.614;1.576;2023-02-28T09:18:41;9.57;;;6.35;;
67904;SDS011;54709;43.614;1.576;2023-02-28T09:21:07;10.15;;;5.70;;
67904;SDS011;54709;43.614;1.576;2023-02-28T09:23:33;13.90;;;8.20;;
67904;SDS011;54709;43.614;1.576;2023-02-28T09:25:59;10.20;;;6.50;;
67904;SDS011;54709;43.614;1.576;2023-02-28T09:28:25;7.38;;;5.78;;
67904;SDS011;54709;43.614;1.576;2023-02-28T09:30:51;7.75;;;5.78;;
67904;SDS011;54709;43.614;1.576;2023-02-28T09:33:18;6.85;;;5.18;;
67904;SDS011;54709;43.614;1.576;2023-02-28T09:35:47;9.68;;;6.53;;
67904;SDS011;54709;43.614;1.576;2023-02-28T09:38:13;9.98;;;6.38;;
67904;SDS011;54709;43.614;1.576;2023-02-28T09:43:17;8.77;;;6.57;;
67904;SDS011;54709;43.614;1.576;2023-02-28T09:45:51;7.85;;;5.65;;
67904;SDS011;54709;43.614;1.576;2023-02-28T09:48:24;8.40;;;5.88;;
67904;SDS011;54709;43.614;1.576;2023-02-28T09:50:59;10.32;;;5.70;;
67904;SDS011;54709;43.614;1.576;2023-02-28T09:53:33;8.80;;;6.50;;
67904;SDS011;54709;43.614;1.576;2023-02-28T09:56:10;7.00;;;5.35;;
67904;SDS011;54709;43.614;1.576;2023-02-28T10:03:56;9.57;;;5.40;;
67904;SDS011;54709;43.614;1.576;2023-02-28T10:06:29;6.43;;;5.25;;
67904;SDS011;54709;43.614;1.576;2023-02-28T10:09:03;8.00;;;5.45;;
67904;SDS011;54709;43.614;1.576;2023-02-28T10:11:32;8.00;;;6.18;;
67904;SDS011;54709;43.614;1.576;2023-02-28T10:14:06;8.50;;;5.78;;
67904;SDS011;54709;43.614;1.576;2023-02-28T10:16:48;7.53;;;5.70;;
67904;SDS011;54709;43.614;1.576;2023-02-28T10:19:31;8.90;;;6.28;;
67904;SDS011;54709;43.614;1.576;2023-02-28T10:22:00;15.77;;;10.20;;
67904;SDS011;54709;43.614;1.576;2023-02-28T10:24:37;8.68;;;6.20;;
67904;SDS011;54709;43.614;1.576;2023-02-28T10:27:17;10.77;;;7.90;;
67904;SDS011;54709;43.614;1.576;2023-02-28T10:29:48;13.75;;;8.13;;
67904;SDS011;54709;43.614;1.576;2023-02-28T10:32:17;8.18;;;5.60;;
67904;SDS011;54709;43.614;1.576;2023-02-28T10:34:43;9.25;;;6.28;;
67904;SDS011;54709;43.614;1.576;2023-02-28T10:37:09;9.25;;;6.72;;
67904;SDS011;54709;43.614;1.576;2023-02-28T10:42:26;10.90;;;6.60;;
67904;SDS011;54709;43.614;1.576;2023-02-28T10:45:06;7.25;;;5.00;;
67904;SDS011;54709;43.614;1.576;2023-02-28T10:47:38;7.03;;;5.25;;
67904;SDS011;54709;43.614;1.576;2023-02-28T10:53:14;9.60;;;6.95;;
67904;SDS011;54709;43.614;1.576;2023-02-28T10:55:41;17.60;;;8.40;;
67904;SDS011;54709;43.614;1.576;2023-02-28T10:58:25;9.05;;;6.38;;
67904;SDS011;54709;43.614;1.576;2023-02-28T11:00:51;9.32;;;6.63;;
67904;SDS011;54709;43.614;1.576;2023-02-28T11:05:57;8.90;;;6.13;;
67904;SDS011;54709;43.614;1.576;2023-02-28T11:08:23;9.50;;;6.22;;
67904;SDS011;54709;43.614;1.576;2023-02-28T11:10:56;8.90;;;5.88;;
67904;SDS011;54709;43.614;1.576;2023-02-28T11:13:27;6.97;;;5.47;;
67904;SDS011;54709;43.614;1.576;2023-02-28T11:18:28;7.20;;;5.13;;
67904;SDS011;54709;43.614;1.576;2023-02-28T11:21:09;10.30;;;5.50;;
67904;SDS011;54709;43.614;1.576;2023-02-28T11:23:42;6.85;;;5.05;;
67904;SDS011;54709;43.614;1.576;2023-02-28T11:26:08;6.38;;;5.25;;
67904;SDS011;54709;43.614;1.576;2023-02-28T11:28:37;8.27;;;5.13;;
67904;SDS011;54709;43.614;1.576;2023-02-28T11:33:44;6.50;;;5.10;;
67904;SDS011;54709;43.614;1.576;2023-02-28T11:36:17;8.02;;;5.22;;
67904;SDS011;54709;43.614;1.576;2023-02-28T11:38:58;8.13;;;5.13;;
67904;SDS011;54709;43.614;1.576;2023-02-28T11:46:58;7.30;;;5.55;;
67904;SDS011;54709;43.614;1.576;2023-02-28T11:52:00;6.38;;;5.35;;
67904;SDS011;54709;43.614;1.576;2023-02-28T12:02:54;6.75;;;5.15;;
67904;SDS011;54709;43.614;1.576;2023-02-28T12:08:06;7.85;;;5.50;;
67904;SDS011;54709;43.614;1.576;2023-02-28T12:11:02;9.48;;;5.97;;
67904;SDS011;54709;43.614;1.576;2023-02-28T12:16:35;8.38;;;5.25;;
67904;SDS011;54709;43.614;1.576;2023-02-28T12:19:31;7.18;;;;;
67904;SDS011;54709;43.614;1.576;2023-02-28T12:27:48;6.13;;;4.93;;
67904;SDS011;54709;43.614;1.576;2023-02-28T12:30:22;5.88;;;4.35;;
67904;SDS011;54709;43.614;1.576;2023-02-28T12:32:52;7.20;;;5.43;;
67904;SDS011;54709;43.614;1.576;2023-02-28T12:35:24;7.82;;;4.97;;
67904;SDS011;54709;43.614;1.576;2023-02-28T12:38:02;8.75;;;5.47;;
67904;SDS011;54709;43.614;1.576;2023-02-28T12:40:33;10.82;;;7.72;;
67904;SDS011;54709;43.614;1.576;2023-02-28T12:43:09;6.53;;;5.22;;
67904;SDS011;54709;43.614;1.576;2023-02-28T12:45:40;7.30;;;6.10;;
67904;SDS011;54709;43.614;1.576;2023-02-28T12:48:10;6.68;;;5.13;;
67904;SDS011;54709;43.614;1.576;2023-02-28T12:50:38;5.97;;;5.05;;
67904;SDS011;54709;43.614;1.576;2023-02-28T12:56:02;6.75;;;5.40;;
67904;SDS011;54709;43.614;1.576;2023-02-28T13:06:55;7.30;;;6.25;;
67904;SDS011;54709;43.614;1.576;2023-02-28T13:09:24;6.72;;;6.03;;
67904;SDS011;54709;43.614;1.576;2023-02-28T13:11:50;6.00;;;5.30;;
67904;SDS011;54709;43.614;1.576;2023-02-28T13:16:48;7.50;;;5.05;;
67904;SDS011;54709;43.614;1.576;2023-02-28T13:19:22;9.18;;;6.28;;
67904;SDS011;54709;43.614;1.576;2023-02-28T13:21:50;7.57;;;5.60;;
67904;SDS011;54709;43.614;1.576;2023-02-28T13:25:01;7.68;;;5.57;;
67904;SDS011;54709;43.614;1.576;2023-02-28T13:34:37;6.45;;;5.05;;
67904;SDS011;54709;43.614;1.576;2023-02-28T13:42:35;6.53;;;5.28;;
67904;SDS011;54709;43.614;1.576;2023-02-28T13:47:36;6.60;;;5.20;;
67904;SDS011;54709;43.614;1.576;2023-02-28T13:58:15;7.00;;;4.97;;
67904;SDS011;54709;43.614;1.576;2023-02-28T14:06:28;5.30;;;4.22;;
67904;SDS011;54709;43.614;1.576;2023-02-28T14:08:57;4.90;;;3.83;;
67904;SDS011;54709;43.614;1.576;2023-02-28T14:11:42;4.82;;;4.05;;
67904;SDS011;54709;43.614;1.576;2023-02-28T14:14:08;6.88;;;4.18;;
67904;SDS011;54709;43.614;1.576;2023-02-28T14:16:36;6.47;;;4.50;;
67904;SDS011;54709;43.614;1.576;2023-02-28T14:19:12;5.85;;;5.00;;
67904;SDS011;54709;43.614;1.576;2023-02-28T14:21:40;5.50;;;4.40;;
67904;SDS011;54709;43.614;1.576;2023-02-28T14:24:20;7.40;;;4.68;;
67904;SDS011;54709;43.614;1.576;2023-02-28T14:38:14;6.53;;;5.10;;
67904;SDS011;54709;43.614;1.576;2023-02-28T14:40:43;6.10;;;4.70;;
67904;SDS011;54709;43.614;1.576;2023-02-28T14:43:24;7.28;;;5.68;;
67904;SDS011;54709;43.614;1.576;2023-02-28T14:45:53;7.72;;;5.63;;
67904;SDS011;54709;43.614;1.576;2023-02-28T14:48:20;5.53;;;5.00;;
67904;SDS011;54709;43.614;1.576;2023-02-28T14:50:51;6.05;;;4.82;;
67904;SDS011;54709;43.614;1.576;2023-02-28T14:53:19;6.88;;;4.82;;
67904;SDS011;54709;43.614;1.576;2023-02-28T14:55:46;6.25;;;4.88;;
67904;SDS011;54709;43.614;1.576;2023-02-28T14:58:27;8.15;;;4.68;;
67904;SDS011;54709;43.614;1.576;2023-02-28T15:00:55;6.10;;;5.30;;
67904;SDS011;54709;43.614;1.576;2023-02-28T15:03:29;5.57;;;4.75;;
67904;SDS011;54709;43.614;1.576;2023-02-28T15:06:03;5.90;;;4.72;;
67904;SDS011;54709;43.614;1.576;2023-02-28T15:08:30;4.90;;;4.35;;
67904;SDS011;54709;43.614;1.576;2023-02-28T15:16:20;5.50;;;4.40;;
67904;SDS011;54709;43.614;1.576;2023-02-28T15:21:18;6.88;;;4.60;;
67904;SDS011;54709;43.614;1.576;2023-02-28T15:23:48;5.32;;;4.43;;
67904;SDS011;54709;43.614;1.576;2023-02-28T15:26:22;6.63;;;5.15;;
67904;SDS011;54709;43.614;1.576;2023-02-28T15:28:51;7.20;;;4.75;;
67904;SDS011;54709;43.614;1.576;2023-02-28T15:31:29;6.25;;;4.55;;
67904;SDS011;54709;43.614;1.576;2023-02-28T15:33:57;6.70;;;4.75;;
67904;SDS011;54709;43.614;1.576;2023-02-28T15:36:31;5.17;;;4.43;;
67904;SDS011;54709;43.614;1.576;2023-02-28T15:39:01;6.15;;;4.55;;
67904;SDS011;54709;43.614;1.576;2023-02-28T15:41:28;5.32;;;4.20;;
67904;SDS011;54709;43.614;1.576;2023-02-28T15:47:02;5.78;;;4.35;;
67904;SDS011;54709;43.614;1.576;2023-02-28T15:49:29;16.25;;;9.15;;
67904;SDS011;54709;43.614;1.576;2023-02-28T15:52:05;8.77;;;5.95;;
67904;SDS011;54709;43.614;1.576;2023-02-28T15:54:34;17.60;;;11.18;;
67904;SDS011;54709;43.614;1.576;2023-02-28T15:57:04;11.05;;;7.68;;
67904;SDS011;54709;43.614;1.576;2023-02-28T15:59:33;6.57;;;4.90;;
67904;SDS011;54709;43.614;1.576;2023-02-28T16:04:54;8.68;;;6.57;;
67904;SDS011;54709;43.614;1.576;2023-02-28T16:07:40;5.32;;;4.32;;
67904;SDS011;54709;43.614;1.576;2023-02-28T16:10:08;6.85;;;5.00;;
67904;SDS011;54709;43.614;1.576;2023-02-28T16:12:36;6.93;;;4.38;;
67904;SDS011;54709;43.614;1.576;2023-02-28T16:15:05;8.35;;;4.05;;
67904;SDS011;54709;43.614;1.576;2023-02-28T16:17:33;6.47;;;4.38;;
67904;SDS011;54709;43.614;1.576;2023-02-28T16:20:00;6.90;;;4.38;;
67904;SDS011;54709;43.614;1.576;2023-02-28T16:22:26;5.32;;;4.15;;
67904;SDS011;54709;43.614;1.576;2023-02-28T16:24:51;6.85;;;4.13;;
67904;SDS011;54709;43.614;1.576;2023-02-28T16:29:47;4.88;;;4.15;;
67904;SDS011;54709;43.614;1.576;2023-02-28T16:32:15;6.30;;;4.18;;
67904;SDS011;54709;43.614;1.576;2023-02-28T16:34:42;5.47;;;4.60;;
67904;SDS011;54709;43.614;1.576;2023-02-28T16:37:11;5.40;;;3.75;;
67904;SDS011;54709;43.614;1.576;2023-02-28T16:39:40;6.63;;;4.80;;
67904;SDS011;54709;43.614;1.576;2023-02-28T16:42:09;8.85;;;4.53;;
67904;SDS011;54709;43.614;1.576;2023-02-28T16:44:47;4.88;;;4.38;;
67904;SDS011;54709;43.614;1.576;2023-02-28T16:47:12;7.05;;;4.80;;
67904;SDS011;54709;43.614;1.576;2023-02-28T16:49:38;4.82;;;4.15;;
67904;SDS011;54709;43.614;1.576;2023-02-28T16:52:04;6.60;;;4.20;;
67904;SDS011;54709;43.614;1.576;2023-02-28T16:54:30;6.63;;;4.05;;
67904;SDS011;54709;43.614;1.576;2023-02-28T16:56:56;5.45;;;4.10;;
67904;SDS011;54709;43.614;1.576;2023-02-28T16:59:22;4.90;;;4.35;;
67904;SDS011;54709;43.614;1.576;2023-02-28T17:01:49;6.82;;;4.10;;
67904;SDS011;54709;43.614;1.576;2023-02-28T17:04:15;6.80;;;4.28;;
67904;SDS011;54709;43.614;1.576;2023-02-28T17:06:40;6.53;;;4.28;;
67904;SDS011;54709;43.614;1.576;2023-02-28T17:09:08;5.30;;;4.38;;
67904;SDS011;54709;43.614;1.576;2023-02-28T17:11:41;5.22;;;4.13;;
67904;SDS011;54709;43.614;1.576;2023-02-28T17:14:07;4.68;;;4.10;;
67904;SDS011;54709;43.614;1.576;2023-02-28T17:16:33;5.03;;;4.10;;
67904;SDS011;54709;43.614;1.576;2023-02-28T17:19:00;6.88;;;4.10;;
67904;SDS011;54709;43.614;1.576;2023-02-28T17:21:27;5.68;;;4.10;;
67904;SDS011;54709;43.614;1.576;2023-02-28T17:23:53;5.60;;;4.28;;
67904;SDS011;54709;43.614;1.576;2023-02-28T17:26:19;5.65;;;4.35;;
67904;SDS011;54709;43.614;1.576;2023-02-28T17:28:46;5.63;;;4.30;;
67904;SDS011;54709;43.614;1.576;2023-02-28T17:31:12;6.20;;;4.35;;
67904;SDS011;54709;43.614;1.576;2023-02-28T17:33:37;6.28;;;4.20;;
67904;SDS011;54709;43.614;1.576;2023-02-28T17:36:03;9.40;;;5.10;;